createdAt,value
2016-08-14T04:02:50.766Z,1021.65
2016-08-14T04:03:24.643Z,1021.68
2016-08-14T04:03:50.426Z,1021.64
2016-08-14T04:04:16.012Z,1021.69
2016-08-14T04:04:41.575Z,1021.66
2016-08-14T04:05:07.122Z,1021.68
2016-08-14T04:05:32.670Z,1021.74
2016-08-14T04:05:58.256Z,1021.7
2016-08-14T04:06:23.818Z,1021.7
2016-08-14T04:06:49.397Z,1021.71
2016-08-14T04:07:14.967Z,1021.74
2016-08-14T04:07:40.547Z,1021.67
2016-08-14T04:08:06.116Z,1021.75
2016-08-14T04:08:31.775Z,1021.71
2016-08-14T04:08:57.351Z,1021.74
2016-08-14T04:09:22.921Z,1021.74
2016-08-14T04:09:48.488Z,1021.72
2016-08-14T04:10:14.054Z,1021.7
2016-08-14T04:10:39.618Z,1021.7
2016-08-14T04:11:05.171Z,1021.71
2016-08-14T04:11:30.749Z,1021.7
2016-08-14T04:11:56.316Z,1021.74
2016-08-14T04:12:21.985Z,1021.72
2016-08-14T04:12:47.642Z,1021.7
2016-08-14T04:13:13.205Z,1021.69
2016-08-14T04:13:38.755Z,1021.71
2016-08-14T04:14:04.323Z,1021.73
2016-08-14T04:15:07.493Z,1021.69
2016-08-14T04:15:33.056Z,1021.66
2016-08-14T04:15:58.624Z,1021.7
2016-08-14T04:16:24.235Z,1021.65
2016-08-14T04:16:49.806Z,1021.69
2016-08-14T04:17:15.369Z,1021.75
2016-08-14T04:17:40.939Z,1021.68
2016-08-14T04:18:06.502Z,1021.66
2016-08-14T04:18:32.080Z,1021.69
2016-08-14T04:18:57.637Z,1021.66
2016-08-14T04:19:23.202Z,1021.68
2016-08-14T04:19:48.812Z,1021.68
2016-08-14T04:20:14.366Z,1021.69
2016-08-14T04:20:39.923Z,1021.74
2016-08-14T04:21:05.487Z,1021.68
2016-08-14T04:21:31.051Z,1021.69
2016-08-14T04:21:56.611Z,1021.7
2016-08-14T04:22:22.210Z,1021.69
2016-08-14T04:22:47.797Z,1021.73
2016-08-14T04:23:13.399Z,1021.71
2016-08-14T04:23:38.946Z,1021.69
2016-08-14T04:24:04.507Z,1021.73
2016-08-14T04:24:30.052Z,1021.71
2016-08-14T04:24:55.629Z,1021.71
2016-08-14T04:25:21.189Z,1021.7
2016-08-14T04:25:46.807Z,1021.7
2016-08-14T04:26:12.389Z,1021.73
2016-08-14T04:26:37.946Z,1021.74
2016-08-14T04:27:03.515Z,1021.71
2016-08-14T04:27:29.088Z,1021.75
2016-08-14T04:27:54.778Z,1021.73
2016-08-14T04:28:20.354Z,1021.74
2016-08-14T04:28:46.026Z,1021.72
2016-08-14T04:29:11.611Z,1021.72
2016-08-14T04:29:37.171Z,1021.72
2016-08-14T04:30:02.753Z,1021.74
2016-08-14T04:30:28.324Z,1021.72
2016-08-14T04:30:53.895Z,1021.74
2016-08-14T04:31:19.520Z,1021.73
2016-08-14T04:31:45.221Z,1021.73
2016-08-14T04:32:10.791Z,1021.77
2016-08-14T04:32:36.357Z,1021.75
2016-08-14T04:33:01.920Z,1021.76
2016-08-14T04:33:27.496Z,1021.79
2016-08-14T04:33:53.076Z,1021.78
2016-08-14T04:34:18.654Z,1021.79
2016-08-14T04:34:44.219Z,1021.79
2016-08-14T04:35:09.798Z,1021.78
2016-08-14T04:35:35.362Z,1021.8
2016-08-14T04:36:00.986Z,1021.79
2016-08-14T04:36:26.567Z,1021.81
2016-08-14T04:36:52.111Z,1021.81
2016-08-14T04:37:17.721Z,1021.82
2016-08-14T04:37:43.258Z,1021.8
2016-08-14T04:38:08.805Z,1021.81
2016-08-14T04:38:34.368Z,1021.83
2016-08-14T04:38:59.970Z,1021.81
2016-08-14T04:39:25.516Z,1021.8
2016-08-14T04:39:51.086Z,1021.81
2016-08-14T04:40:16.719Z,1021.78
2016-08-14T04:40:42.258Z,1021.79
2016-08-14T04:41:07.824Z,1021.81
2016-08-14T04:41:33.425Z,1021.82
2016-08-14T04:41:58.979Z,1021.83
2016-08-14T04:42:24.600Z,1021.81
2016-08-14T04:42:50.155Z,1021.8
2016-08-14T04:43:15.722Z,1021.81
2016-08-14T04:43:41.293Z,1021.81
2016-08-14T04:44:06.863Z,1021.79
2016-08-14T04:44:32.463Z,1021.75
2016-08-14T04:44:58.017Z,1021.8
2016-08-14T04:46:11.562Z,1021.77
2016-08-14T04:46:37.143Z,1021.76
2016-08-14T04:47:02.712Z,1021.77
2016-08-14T04:47:28.315Z,1021.8
2016-08-14T04:47:53.894Z,1021.77
2016-08-14T04:48:19.544Z,1021.78
2016-08-14T04:48:45.114Z,1021.8
2016-08-14T04:49:10.687Z,1021.77
2016-08-14T04:49:36.281Z,1021.78
2016-08-14T04:50:01.847Z,1021.78
2016-08-14T04:50:27.508Z,1021.75
2016-08-14T04:50:53.089Z,1021.79
2016-08-14T04:52:11.646Z,1021.78
2016-08-14T04:52:37.213Z,1021.77
2016-08-14T04:53:02.925Z,1021.78
2016-08-14T04:53:28.521Z,1021.77
2016-08-14T04:53:54.074Z,1021.77
2016-08-14T04:54:19.627Z,1021.79
2016-08-14T04:54:45.184Z,1021.79
2016-08-14T04:55:10.762Z,1021.83
2016-08-14T04:55:36.354Z,1021.8
2016-08-14T04:56:01.912Z,1021.81
2016-08-14T04:56:27.500Z,1021.85
2016-08-14T04:56:53.128Z,1021.84
2016-08-14T04:57:18.690Z,1021.78
2016-08-14T04:57:44.264Z,1021.82
2016-08-14T04:58:09.900Z,1021.79
2016-08-14T04:58:35.491Z,1021.8
2016-08-14T04:59:01.064Z,1021.82
2016-08-14T04:59:26.627Z,1021.83
2016-08-14T04:59:52.192Z,1021.81
2016-08-14T05:00:17.769Z,1021.86
2016-08-14T05:00:43.338Z,1021.85
2016-08-14T05:01:08.915Z,1021.86
2016-08-14T05:01:34.483Z,1021.85
2016-08-14T05:02:00.065Z,1021.87
2016-08-14T05:02:25.609Z,1021.88
2016-08-14T05:02:51.182Z,1021.84
2016-08-14T05:03:16.752Z,1021.86
2016-08-14T05:03:42.291Z,1021.82
2016-08-14T05:04:07.835Z,1021.87
2016-08-14T05:04:33.398Z,1021.88
2016-08-14T05:04:58.984Z,1021.86
2016-08-14T05:05:24.534Z,1021.88
2016-08-14T05:05:50.084Z,1021.88
2016-08-14T05:06:15.637Z,1021.88
2016-08-14T05:06:41.189Z,1021.89
2016-08-14T05:07:06.749Z,1021.91
2016-08-14T05:07:32.307Z,1021.91
2016-08-14T05:07:57.868Z,1021.88
2016-08-14T05:08:23.446Z,1021.91
2016-08-14T05:08:49.014Z,1021.89
2016-08-14T05:09:14.575Z,1021.94
2016-08-14T05:09:40.145Z,1021.96
2016-08-14T05:10:05.699Z,1021.97
2016-08-14T05:10:31.277Z,1021.95
2016-08-14T05:10:56.834Z,1021.96
2016-08-14T05:11:22.381Z,1021.96
2016-08-14T05:11:48.062Z,1021.95
2016-08-14T05:12:13.640Z,1021.92
2016-08-14T05:12:39.215Z,1021.95
2016-08-14T05:13:04.769Z,1021.92
2016-08-14T05:13:30.397Z,1021.94
2016-08-14T05:13:56.107Z,1021.97
2016-08-14T05:14:21.676Z,1021.97
2016-08-14T05:14:47.242Z,1021.98
2016-08-14T05:15:12.802Z,1021.98
2016-08-14T05:15:38.374Z,1022
2016-08-14T05:16:03.946Z,1022.01
2016-08-14T05:16:29.508Z,1022
2016-08-14T05:16:55.073Z,1022
2016-08-14T05:17:20.643Z,1021.99
2016-08-14T05:17:46.402Z,1022
2016-08-14T05:18:11.968Z,1022.05
2016-08-14T05:18:37.514Z,1022.02
2016-08-14T05:19:03.080Z,1022.04
2016-08-14T05:19:28.651Z,1022
2016-08-14T05:19:54.196Z,1022.04
2016-08-14T05:20:19.775Z,1022.03
2016-08-14T05:20:45.353Z,1022.04
2016-08-14T05:21:10.924Z,1022.03
2016-08-14T05:21:36.489Z,1022.01
2016-08-14T05:22:02.065Z,1022.02
2016-08-14T05:22:27.612Z,1022.02
2016-08-14T05:22:53.180Z,1022.03
2016-08-14T05:23:18.853Z,1022.02
2016-08-14T05:23:44.426Z,1022.04
2016-08-14T05:24:09.979Z,1022
2016-08-14T05:24:35.586Z,1022.03
2016-08-14T05:25:54.302Z,1022.02
2016-08-14T05:26:20.027Z,1022.02
2016-08-14T05:26:45.604Z,1021.99
2016-08-14T05:27:11.175Z,1022.04
2016-08-14T05:28:16.856Z,1022.04
2016-08-14T05:30:29.715Z,1022.04
2016-08-14T05:30:55.326Z,1022.02
2016-08-14T05:31:20.882Z,1022.09
2016-08-14T05:31:46.453Z,1022.04
2016-08-14T05:32:12.096Z,1022.03
2016-08-14T05:32:37.644Z,1022.05
2016-08-14T05:33:03.213Z,1022.03
2016-08-14T05:33:28.787Z,1022.03
2016-08-14T05:33:54.355Z,1022.08
2016-08-14T05:34:19.920Z,1022.06
2016-08-14T05:34:45.476Z,1022.12
2016-08-14T05:35:11.027Z,1022.05
2016-08-14T05:35:36.850Z,1022.09
2016-08-14T05:36:02.415Z,1022.07
2016-08-14T05:36:28.007Z,1022.09
2016-08-14T05:36:53.579Z,1022.09
2016-08-14T05:37:19.155Z,1022.09
2016-08-14T05:37:44.759Z,1022.12
2016-08-14T05:38:10.325Z,1022.14
2016-08-14T05:38:35.886Z,1022.14
2016-08-14T05:39:01.635Z,1022.17
2016-08-14T05:39:27.209Z,1022.12
2016-08-14T05:39:52.821Z,1022.11
2016-08-14T05:40:18.336Z,1022.17
2016-08-14T05:40:43.906Z,1022.14
2016-08-14T05:41:09.463Z,1022.12
2016-08-14T05:41:35.055Z,1022.15
2016-08-14T05:42:00.636Z,1022.13
2016-08-14T05:42:26.202Z,1022.13
2016-08-14T05:42:51.758Z,1022.15
2016-08-14T05:43:17.424Z,1022.17
2016-08-14T05:43:42.988Z,1022.14
2016-08-14T05:44:08.546Z,1022.15
2016-08-14T05:44:34.126Z,1022.15
2016-08-14T05:44:59.706Z,1022.18
2016-08-14T05:45:25.267Z,1022.18
2016-08-14T05:45:50.827Z,1022.15
2016-08-14T05:46:16.394Z,1022.15
2016-08-14T05:46:42.101Z,1022.14
2016-08-14T05:47:07.673Z,1022.17
2016-08-14T05:47:33.282Z,1022.14
2016-08-14T05:47:58.832Z,1022.18
2016-08-14T05:48:24.435Z,1022.18
2016-08-14T05:48:50.006Z,1022.14
2016-08-14T05:49:15.576Z,1022.17
2016-08-14T05:49:41.276Z,1022.22
2016-08-14T05:50:06.837Z,1022.17
2016-08-14T05:50:32.394Z,1022.21
2016-08-14T05:50:57.963Z,1022.17
2016-08-14T05:51:23.514Z,1022.21
2016-08-14T05:51:49.079Z,1022.19
2016-08-14T05:52:14.652Z,1022.22
2016-08-14T05:52:40.215Z,1022.25
2016-08-14T05:53:05.783Z,1022.21
2016-08-14T05:53:31.341Z,1022.27
2016-08-14T05:53:56.909Z,1022.23
2016-08-14T05:54:22.469Z,1022.25
2016-08-14T05:54:48.031Z,1022.23
2016-08-14T05:55:13.578Z,1022.26
2016-08-14T05:55:39.173Z,1022.24
2016-08-14T05:56:04.754Z,1022.22
2016-08-14T05:56:30.329Z,1022.24
2016-08-14T05:56:55.906Z,1022.22
2016-08-14T05:57:21.485Z,1022.22
2016-08-14T05:57:47.056Z,1022.24
2016-08-14T05:58:12.636Z,1022.19
2016-08-14T05:58:38.236Z,1022.28
2016-08-14T05:59:03.815Z,1022.27
2016-08-14T05:59:29.373Z,1022.22
2016-08-14T05:59:54.947Z,1022.25
2016-08-14T06:01:03.415Z,1022.28
2016-08-14T06:01:29.181Z,1022.26
2016-08-14T06:01:54.773Z,1022.26
2016-08-14T06:02:20.434Z,1022.26
2016-08-14T06:02:45.982Z,1022.25
2016-08-14T06:03:11.551Z,1022.22
2016-08-14T06:03:37.107Z,1022.25
2016-08-14T06:04:02.656Z,1022.26
2016-08-14T06:04:28.242Z,1022.23
2016-08-14T06:04:53.909Z,1022.27
2016-08-14T06:05:19.544Z,1022.25
2016-08-14T06:05:45.096Z,1022.24
2016-08-14T06:06:10.657Z,1022.26
2016-08-14T06:06:36.235Z,1022.27
2016-08-14T06:07:01.782Z,1022.27
2016-08-14T06:07:27.346Z,1022.26
2016-08-14T06:07:52.912Z,1022.25
2016-08-14T06:08:18.525Z,1022.27
2016-08-14T06:08:44.129Z,1022.26
2016-08-14T06:09:09.691Z,1022.28
2016-08-14T06:09:35.326Z,1022.27
2016-08-14T06:10:01.116Z,1022.29
2016-08-14T06:10:26.561Z,1022.29
2016-08-14T06:10:52.105Z,1022.3
2016-08-14T06:11:17.703Z,1022.27
2016-08-14T06:11:43.330Z,1022.25
2016-08-14T06:12:08.895Z,1022.26
2016-08-14T06:12:34.471Z,1022.25
2016-08-14T06:13:00.040Z,1022.28
2016-08-14T06:13:25.617Z,1022.26
2016-08-14T06:13:51.171Z,1022.28
2016-08-14T06:14:16.756Z,1022.26
2016-08-14T06:14:42.312Z,1022.26
2016-08-14T06:15:07.879Z,1022.22
2016-08-14T06:15:33.427Z,1022.22
2016-08-14T06:15:58.989Z,1022.21
2016-08-14T06:16:24.572Z,1022.22
2016-08-14T06:16:50.147Z,1022.23
2016-08-14T06:17:15.697Z,1022.23
2016-08-14T06:17:41.269Z,1022.22
2016-08-14T06:18:06.833Z,1022.21
2016-08-14T06:18:32.423Z,1022.25
2016-08-14T06:18:57.977Z,1022.2
2016-08-14T06:19:23.552Z,1022.21
2016-08-14T06:19:49.247Z,1022.21
2016-08-14T06:20:14.808Z,1022.2
2016-08-14T06:20:40.456Z,1022.18
2016-08-14T06:21:06.029Z,1022.21
2016-08-14T06:21:31.599Z,1022.12
2016-08-14T06:21:57.186Z,1022.15
2016-08-14T06:22:22.726Z,1022.15
2016-08-14T06:22:48.273Z,1022.19
2016-08-14T06:23:13.842Z,1022.17
2016-08-14T06:23:39.411Z,1022.12
2016-08-14T06:24:04.969Z,1022.11
2016-08-14T06:24:30.612Z,1022.11
2016-08-14T06:24:56.177Z,1022.13
2016-08-14T06:25:21.754Z,1022.15
2016-08-14T06:25:47.971Z,1022.19
2016-08-14T06:26:13.004Z,1022.13
2016-08-14T06:28:58.441Z,1022.18
2016-08-14T06:29:31.899Z,1022.19
2016-08-14T06:29:57.455Z,1022.19
2016-08-14T06:30:23.013Z,1022.18
2016-08-14T06:30:48.581Z,1022.17
2016-08-14T06:31:14.511Z,1022.16
2016-08-14T06:31:40.060Z,1022.2
2016-08-14T06:32:05.624Z,1022.21
2016-08-14T06:32:31.326Z,1022.25
2016-08-14T06:32:56.956Z,1022.19
2016-08-14T06:34:10.660Z,1022.24
2016-08-14T06:34:36.352Z,1022.24
2016-08-14T06:35:01.911Z,1022.24
2016-08-14T06:35:27.484Z,1022.25
2016-08-14T06:35:53.147Z,1022.29
2016-08-14T06:36:18.692Z,1022.28
2016-08-14T06:36:44.246Z,1022.32
2016-08-14T06:37:09.816Z,1022.3
2016-08-14T06:37:35.436Z,1022.3
2016-08-14T06:38:01.038Z,1022.3
2016-08-14T06:38:26.656Z,1022.31
2016-08-14T06:38:52.296Z,1022.3
2016-08-14T06:39:55.457Z,1022.37
2016-08-14T06:41:09.054Z,1022.33
2016-08-14T06:41:34.821Z,1022.31
2016-08-14T06:42:00.410Z,1022.3
2016-08-14T06:42:25.980Z,1022.34
2016-08-14T06:42:51.642Z,1022.36
2016-08-14T06:43:17.241Z,1022.33
2016-08-14T06:43:42.812Z,1022.35
2016-08-14T06:44:08.396Z,1022.35
2016-08-14T06:44:34.109Z,1022.36
2016-08-14T06:44:59.718Z,1022.35
2016-08-14T06:45:25.279Z,1022.38
2016-08-14T06:45:50.861Z,1022.36
2016-08-14T06:46:16.456Z,1022.36
2016-08-14T06:46:41.990Z,1022.36
2016-08-14T06:47:07.525Z,1022.4
2016-08-14T06:47:33.110Z,1022.37
2016-08-14T06:47:58.642Z,1022.38
2016-08-14T06:48:24.310Z,1022.4
2016-08-14T06:48:49.886Z,1022.39
2016-08-14T06:49:15.488Z,1022.38
2016-08-14T06:49:41.082Z,1022.35
2016-08-14T06:50:06.632Z,1022.39
2016-08-14T06:50:32.166Z,1022.39
2016-08-14T06:50:57.707Z,1022.35
2016-08-14T06:51:23.249Z,1022.41
2016-08-14T06:51:48.815Z,1022.4
2016-08-14T06:52:14.382Z,1022.39
2016-08-14T06:52:39.942Z,1022.41
2016-08-14T06:53:05.503Z,1022.4
2016-08-14T06:53:31.079Z,1022.42
2016-08-14T06:53:56.724Z,1022.41
2016-08-14T06:54:22.323Z,1022.39
2016-08-14T06:54:47.888Z,1022.42
2016-08-14T06:55:13.458Z,1022.41
2016-08-14T06:55:39.055Z,1022.42
2016-08-14T06:56:04.627Z,1022.4
2016-08-14T06:56:30.189Z,1022.43
2016-08-14T06:56:55.874Z,1022.39
2016-08-14T06:57:21.431Z,1022.39
2016-08-14T06:57:47.058Z,1022.37
2016-08-14T06:58:12.686Z,1022.41
2016-08-14T06:58:38.312Z,1022.37
2016-08-14T06:59:03.923Z,1022.43
2016-08-14T06:59:29.500Z,1022.41
2016-08-14T06:59:55.135Z,1022.37
2016-08-14T07:00:20.688Z,1022.39
2016-08-14T07:00:46.260Z,1022.38
2016-08-14T07:01:11.911Z,1022.37
2016-08-14T07:01:37.546Z,1022.37
2016-08-14T07:02:03.090Z,1022.45
2016-08-14T07:02:29.224Z,1022.42
2016-08-14T07:02:54.945Z,1022.46
2016-08-14T07:03:20.540Z,1022.41
2016-08-14T07:03:49.075Z,1022.42
2016-08-14T07:04:18.364Z,1022.41
2016-08-14T07:05:39.263Z,1022.42
2016-08-14T07:07:05.607Z,1022.4
2016-08-14T07:07:34.532Z,1022.41
2016-08-14T07:08:02.093Z,1022.44
2016-08-14T07:08:28.663Z,1022.41
2016-08-14T07:08:54.226Z,1022.39
2016-08-14T07:09:19.828Z,1022.38
2016-08-14T07:09:45.395Z,1022.44
2016-08-14T07:10:11.150Z,1022.42
2016-08-14T07:10:36.730Z,1022.41
2016-08-14T07:11:02.317Z,1022.42
2016-08-14T07:11:27.884Z,1022.43
2016-08-14T07:11:53.431Z,1022.4
2016-08-14T07:12:19.047Z,1022.44
2016-08-14T07:12:44.610Z,1022.44
2016-08-14T07:13:10.198Z,1022.41
2016-08-14T07:13:35.757Z,1022.44
2016-08-14T07:14:01.389Z,1022.42
2016-08-14T07:14:26.980Z,1022.44
2016-08-14T07:14:52.576Z,1022.45
2016-08-14T07:15:18.151Z,1022.44
2016-08-14T07:15:43.772Z,1022.42
2016-08-14T07:16:09.329Z,1022.4
2016-08-14T07:16:34.905Z,1022.41
2016-08-14T07:17:00.514Z,1022.46
2016-08-14T07:17:26.168Z,1022.4
2016-08-14T07:17:51.726Z,1022.44
2016-08-14T07:18:17.296Z,1022.42
2016-08-14T07:18:42.874Z,1022.45
2016-08-14T07:19:08.432Z,1022.46
2016-08-14T07:20:06.527Z,1022.48
2016-08-14T07:21:09.686Z,1022.46
2016-08-14T07:21:35.287Z,1022.48
2016-08-14T07:22:00.986Z,1022.51
2016-08-14T07:22:26.627Z,1022.47
2016-08-14T07:22:52.195Z,1022.5
2016-08-14T07:23:17.784Z,1022.5
2016-08-14T07:23:43.387Z,1022.49
2016-08-14T07:24:08.954Z,1022.54
2016-08-14T07:24:34.587Z,1022.55
2016-08-14T07:25:00.256Z,1022.58
2016-08-14T07:25:26.012Z,1022.54
2016-08-14T07:25:51.637Z,1022.52
2016-08-14T07:26:17.196Z,1022.52
2016-08-14T07:26:42.853Z,1022.52
2016-08-14T07:27:08.414Z,1022.54
2016-08-14T07:27:34.057Z,1022.57
2016-08-14T07:27:59.627Z,1022.54
2016-08-14T07:28:25.192Z,1022.57
2016-08-14T07:28:50.982Z,1022.6
2016-08-14T07:30:09.561Z,1022.63
2016-08-14T07:30:35.231Z,1022.55
2016-08-14T07:31:00.831Z,1022.63
2016-08-14T07:31:26.414Z,1022.62
2016-08-14T07:31:51.999Z,1022.63
2016-08-14T07:32:17.640Z,1022.61
2016-08-14T07:32:43.265Z,1022.6
2016-08-14T07:33:08.840Z,1022.61
2016-08-14T07:33:34.426Z,1022.6
2016-08-14T07:34:00.011Z,1022.58
2016-08-14T07:34:25.562Z,1022.61
2016-08-14T07:34:51.308Z,1022.57
2016-08-14T07:35:16.964Z,1022.6
2016-08-14T07:35:42.628Z,1022.58
2016-08-14T07:36:08.323Z,1022.61
2016-08-14T07:36:33.880Z,1022.62
2016-08-14T07:36:59.446Z,1022.57
2016-08-14T07:37:25.003Z,1022.6
2016-08-14T07:37:50.671Z,1022.59
2016-08-14T07:38:16.394Z,1022.61
2016-08-14T07:38:41.957Z,1022.63
2016-08-14T07:39:07.534Z,1022.64
2016-08-14T07:39:33.108Z,1022.64
2016-08-14T07:39:58.651Z,1022.63
2016-08-14T07:40:24.253Z,1022.64
2016-08-14T07:40:49.813Z,1022.61
2016-08-14T07:41:15.387Z,1022.6
2016-08-14T07:41:41.160Z,1022.62
2016-08-14T07:42:06.751Z,1022.57
2016-08-14T07:42:32.325Z,1022.61
2016-08-14T07:42:57.944Z,1022.62
2016-08-14T07:43:23.535Z,1022.63
2016-08-14T07:43:49.128Z,1022.63
2016-08-14T07:44:14.724Z,1022.59
2016-08-14T07:44:40.273Z,1022.62
2016-08-14T07:45:05.984Z,1022.63
2016-08-14T07:45:31.462Z,1022.63
2016-08-14T07:45:57.053Z,1022.63
2016-08-14T07:46:22.617Z,1022.7
2016-08-14T07:46:48.166Z,1022.67
2016-08-14T07:47:13.724Z,1022.64
2016-08-14T07:47:39.311Z,1022.6
2016-08-14T07:48:04.934Z,1022.63
2016-08-14T07:48:30.503Z,1022.64
2016-08-14T07:48:56.096Z,1022.59
2016-08-14T07:49:21.686Z,1022.6
2016-08-14T07:49:47.253Z,1022.61
2016-08-14T07:50:12.847Z,1022.59
2016-08-14T07:50:38.385Z,1022.64
2016-08-14T07:51:03.933Z,1022.58
2016-08-14T07:51:29.569Z,1022.62
2016-08-14T07:51:55.139Z,1022.63
2016-08-14T07:52:20.705Z,1022.6
2016-08-14T07:52:46.254Z,1022.61
2016-08-14T07:53:11.813Z,1022.6
2016-08-14T07:53:37.354Z,1022.57
2016-08-14T07:54:02.938Z,1022.61
2016-08-14T07:54:28.506Z,1022.63
2016-08-14T07:54:54.074Z,1022.64
2016-08-14T07:55:19.635Z,1022.64
2016-08-14T07:55:45.241Z,1022.62
2016-08-14T07:56:10.814Z,1022.68
2016-08-14T07:56:36.394Z,1022.63
2016-08-14T07:57:02.013Z,1022.63
2016-08-14T07:57:27.585Z,1022.6
2016-08-14T07:57:53.164Z,1022.61
2016-08-14T07:58:18.724Z,1022.58
2016-08-14T07:58:44.439Z,1022.61
2016-08-14T07:59:10.023Z,1022.56
2016-08-14T07:59:35.608Z,1022.59
2016-08-14T08:00:01.390Z,1022.61
2016-08-14T08:01:04.554Z,1022.59
2016-08-14T08:01:30.119Z,1022.59
2016-08-14T08:01:55.711Z,1022.61
2016-08-14T08:02:21.278Z,1022.59
2016-08-14T08:02:46.836Z,1022.57
2016-08-14T08:03:12.388Z,1022.64
2016-08-14T08:03:38.020Z,1022.62
2016-08-14T08:04:03.605Z,1022.62
2016-08-14T08:04:29.195Z,1022.63
2016-08-14T08:04:54.772Z,1022.59
2016-08-14T08:05:20.447Z,1022.66
2016-08-14T08:05:46.034Z,1022.63
2016-08-14T08:06:11.599Z,1022.62
2016-08-14T08:06:37.191Z,1022.63
2016-08-14T08:07:02.764Z,1022.56
2016-08-14T08:08:11.064Z,1022.57
2016-08-14T08:08:36.634Z,1022.57
2016-08-14T08:09:02.236Z,1022.57
2016-08-14T08:09:27.827Z,1022.59
2016-08-14T08:09:53.376Z,1022.55
2016-08-14T08:10:18.920Z,1022.55
2016-08-14T08:10:44.468Z,1022.56
2016-08-14T08:11:10.030Z,1022.54
2016-08-14T08:11:35.654Z,1022.55
2016-08-14T08:12:01.208Z,1022.56
2016-08-14T08:12:26.833Z,1022.52
2016-08-14T08:12:52.471Z,1022.56
2016-08-14T08:13:18.010Z,1022.52
2016-08-14T08:13:43.560Z,1022.5
2016-08-14T08:14:09.085Z,1022.51
2016-08-14T08:14:34.632Z,1022.52
2016-08-14T08:15:00.141Z,1022.52
2016-08-14T08:15:25.759Z,1022.52
2016-08-14T08:15:51.337Z,1022.5
2016-08-14T08:16:16.882Z,1022.47
2016-08-14T08:16:42.412Z,1022.46
2016-08-14T08:17:07.974Z,1022.49
2016-08-14T08:17:33.593Z,1022.47
2016-08-14T08:17:59.144Z,1022.54
2016-08-14T08:18:24.727Z,1022.52
2016-08-14T08:18:50.429Z,1022.53
2016-08-14T08:19:16.025Z,1022.54
2016-08-14T08:19:41.570Z,1022.52
2016-08-14T08:20:07.201Z,1022.53
2016-08-14T08:20:32.749Z,1022.53
2016-08-14T08:20:58.280Z,1022.56
2016-08-14T08:21:23.866Z,1022.55
2016-08-14T08:21:49.434Z,1022.56
2016-08-14T08:22:14.986Z,1022.53
2016-08-14T08:22:40.589Z,1022.54
2016-08-14T08:23:06.138Z,1022.59
2016-08-14T08:23:31.755Z,1022.56
2016-08-14T08:23:57.306Z,1022.52
2016-08-14T08:24:22.886Z,1022.49
2016-08-14T08:24:48.488Z,1022.5
2016-08-14T08:25:14.069Z,1022.51
2016-08-14T08:25:39.644Z,1022.55
2016-08-14T08:26:05.212Z,1022.55
2016-08-14T08:26:30.789Z,1022.58
2016-08-14T08:26:56.363Z,1022.55
2016-08-14T08:27:21.966Z,1022.56
2016-08-14T08:27:47.517Z,1022.55
2016-08-14T08:28:13.054Z,1022.6
2016-08-14T08:28:38.706Z,1022.59
2016-08-14T08:29:04.270Z,1022.58
2016-08-14T08:29:29.833Z,1022.5
2016-08-14T08:29:55.400Z,1022.58
2016-08-14T08:30:21.010Z,1022.6
2016-08-14T08:30:46.597Z,1022.62
2016-08-14T08:31:12.237Z,1022.63
2016-08-14T08:31:37.823Z,1022.65
2016-08-14T08:32:03.392Z,1022.61
2016-08-14T08:32:29.079Z,1022.62
2016-08-14T08:32:54.551Z,1022.62
2016-08-14T08:33:20.113Z,1022.6
2016-08-14T08:33:45.683Z,1022.59
2016-08-14T08:34:11.271Z,1022.64
2016-08-14T08:34:36.837Z,1022.61
2016-08-14T08:35:02.486Z,1022.61
2016-08-14T08:35:28.032Z,1022.62
2016-08-14T08:35:53.631Z,1022.61
2016-08-14T08:36:19.201Z,1022.58
2016-08-14T08:36:44.800Z,1022.58
2016-08-14T08:37:10.511Z,1022.65
2016-08-14T08:37:36.079Z,1022.61
2016-08-14T08:38:01.728Z,1022.65
2016-08-14T08:38:27.350Z,1022.62
2016-08-14T08:38:52.926Z,1022.63
2016-08-14T08:39:18.480Z,1022.6
2016-08-14T08:39:44.075Z,1022.62
2016-08-14T08:40:09.629Z,1022.61
2016-08-14T08:40:35.221Z,1022.6
2016-08-14T08:41:00.772Z,1022.58
2016-08-14T08:41:26.373Z,1022.66
2016-08-14T08:41:52.024Z,1022.61
2016-08-14T08:42:17.601Z,1022.67
2016-08-14T08:42:43.191Z,1022.63
2016-08-14T08:43:08.720Z,1022.63
2016-08-14T08:43:34.304Z,1022.6
2016-08-14T08:43:59.899Z,1022.62
2016-08-14T08:44:25.474Z,1022.6
2016-08-14T08:44:51.133Z,1022.61
2016-08-14T08:45:16.797Z,1022.66
2016-08-14T08:45:42.353Z,1022.62
2016-08-14T08:46:07.929Z,1022.61
2016-08-14T08:46:33.491Z,1022.6
2016-08-14T08:46:59.126Z,1022.61
2016-08-14T08:47:24.721Z,1022.63
2016-08-14T08:47:50.314Z,1022.6
2016-08-14T08:48:15.876Z,1022.61
2016-08-14T08:48:41.447Z,1022.63
2016-08-14T08:49:07.153Z,1022.59
2016-08-14T08:49:32.718Z,1022.6
2016-08-14T08:49:58.312Z,1022.6
2016-08-14T08:50:23.894Z,1022.6
2016-08-14T08:50:49.477Z,1022.64
2016-08-14T08:51:15.049Z,1022.64
2016-08-14T08:51:40.643Z,1022.57
2016-08-14T08:52:06.224Z,1022.63
2016-08-14T08:52:31.943Z,1022.61
2016-08-14T08:52:57.524Z,1022.67
2016-08-14T08:53:23.217Z,1022.61
2016-08-14T08:53:48.759Z,1022.62
2016-08-14T08:54:14.322Z,1022.64
2016-08-14T08:54:39.908Z,1022.62
2016-08-14T08:55:05.503Z,1022.62
2016-08-14T08:55:31.065Z,1022.61
2016-08-14T08:55:56.634Z,1022.63
2016-08-14T08:56:22.193Z,1022.71
2016-08-14T08:56:47.879Z,1022.66
2016-08-14T08:57:13.435Z,1022.67
2016-08-14T08:57:39.026Z,1022.64
2016-08-14T08:58:04.582Z,1022.66
2016-08-14T08:58:30.159Z,1022.64
2016-08-14T08:58:55.731Z,1022.6
2016-08-14T08:59:21.338Z,1022.65
2016-08-14T08:59:46.894Z,1022.62
2016-08-14T09:00:12.500Z,1022.65
2016-08-14T09:00:38.060Z,1022.63
2016-08-14T09:01:03.734Z,1022.64
2016-08-14T09:01:29.339Z,1022.65
2016-08-14T09:01:54.920Z,1022.6
2016-08-14T09:02:20.516Z,1022.59
2016-08-14T09:02:46.134Z,1022.61
2016-08-14T09:03:11.693Z,1022.62
2016-08-14T09:03:37.334Z,1022.59
2016-08-14T09:04:02.998Z,1022.62
2016-08-14T09:04:28.597Z,1022.65
2016-08-14T09:04:54.164Z,1022.65
2016-08-14T09:05:19.733Z,1022.69
2016-08-14T09:05:45.291Z,1022.67
2016-08-14T09:06:10.931Z,1022.74
2016-08-14T09:06:36.554Z,1022.69
2016-08-14T09:07:02.166Z,1022.72
2016-08-14T09:07:27.758Z,1022.67
2016-08-14T09:07:53.515Z,1022.66
2016-08-14T09:08:19.066Z,1022.64
2016-08-14T09:08:44.641Z,1022.62
2016-08-14T09:09:10.214Z,1022.62
2016-08-14T09:09:35.808Z,1022.62
2016-08-14T09:10:01.410Z,1022.64
2016-08-14T09:10:26.985Z,1022.62
2016-08-14T09:10:52.553Z,1022.66
2016-08-14T09:11:18.110Z,1022.64
2016-08-14T09:11:43.663Z,1022.71
2016-08-14T09:12:09.228Z,1022.75
2016-08-14T09:12:34.823Z,1022.72
2016-08-14T09:13:00.384Z,1022.74
2016-08-14T09:13:25.949Z,1022.71
2016-08-14T09:13:51.590Z,1022.72
2016-08-14T09:14:17.140Z,1022.73
2016-08-14T09:14:42.754Z,1022.73
2016-08-14T09:15:08.342Z,1022.67
2016-08-14T09:15:33.961Z,1022.71
2016-08-14T09:15:59.528Z,1022.71
2016-08-14T09:17:02.722Z,1022.75
2016-08-14T09:17:28.263Z,1022.75
2016-08-14T09:17:53.837Z,1022.74
2016-08-14T09:18:19.403Z,1022.71
2016-08-14T09:18:44.975Z,1022.77
2016-08-14T09:19:11.177Z,1022.78
2016-08-14T09:19:36.787Z,1022.75
2016-08-14T09:20:02.412Z,1022.75
2016-08-14T09:20:27.956Z,1022.77
2016-08-14T09:20:53.515Z,1022.76
2016-08-14T09:21:19.117Z,1022.79
2016-08-14T09:21:44.733Z,1022.74
2016-08-14T09:22:10.305Z,1022.78
2016-08-14T09:22:35.872Z,1022.78
2016-08-14T09:23:01.501Z,1022.78
2016-08-14T09:23:27.137Z,1022.8
2016-08-14T09:23:52.730Z,1022.77
2016-08-14T09:24:18.312Z,1022.73
2016-08-14T09:24:43.885Z,1022.75
2016-08-14T09:25:09.443Z,1022.77
2016-08-14T09:25:35.085Z,1022.74
2016-08-14T09:26:00.654Z,1022.77
2016-08-14T09:26:26.228Z,1022.76
2016-08-14T09:26:51.825Z,1022.77
2016-08-14T09:27:17.420Z,1022.74
2016-08-14T09:27:43.103Z,1022.75
2016-08-14T09:28:08.637Z,1022.78
2016-08-14T09:28:34.228Z,1022.78
2016-08-14T09:28:59.829Z,1022.76
2016-08-14T09:29:25.384Z,1022.76
2016-08-14T09:29:50.987Z,1022.78
2016-08-14T09:30:16.612Z,1022.73
2016-08-14T09:30:42.212Z,1022.78